createdAt,value
2016-06-07T00:00:24.288Z,0
2016-06-07T00:01:24.306Z,0
2016-06-07T00:02:24.309Z,0
2016-06-07T00:03:24.328Z,0
2016-06-07T00:04:24.313Z,0
2016-06-07T00:05:24.333Z,0
2016-06-07T00:06:24.335Z,0
2016-06-07T00:07:24.338Z,0
2016-06-07T00:08:24.184Z,0
2016-06-07T00:09:24.359Z,0
2016-06-07T00:10:24.362Z,0
2016-06-07T00:11:24.208Z,0
2016-06-07T00:12:24.368Z,0
2016-06-07T00:13:24.385Z,0
2016-06-07T00:14:24.387Z,0
2016-06-07T00:15:24.406Z,0
2016-06-07T00:16:24.409Z,0
2016-06-07T00:17:24.412Z,0
2016-06-07T00:18:24.414Z,0
2016-06-07T00:19:24.276Z,0
2016-06-07T00:20:24.576Z,0
2016-06-07T00:21:24.470Z,0
2016-06-07T00:22:24.457Z,0
2016-06-07T00:23:24.475Z,0
2016-06-07T00:24:24.461Z,0
2016-06-07T00:25:24.464Z,0
2016-06-07T00:26:24.483Z,0
2016-06-07T00:27:24.500Z,0
2016-06-07T00:28:24.239Z,0
2016-06-07T00:29:24.507Z,0
2016-06-07T00:30:24.509Z,0
2016-06-07T00:31:24.574Z,0
2016-06-07T00:32:24.530Z,0
2016-06-07T00:33:24.596Z,0
2016-06-07T00:34:24.536Z,0
2016-06-07T00:35:24.397Z,0
2016-06-07T00:36:25.744Z,0
2016-06-07T00:37:24.402Z,0
2016-06-07T00:38:24.578Z,0
2016-06-07T00:39:24.424Z,0
2016-06-07T00:40:24.582Z,0
2016-06-07T00:41:24.601Z,0
2016-06-07T00:42:24.604Z,0
2016-06-07T00:43:24.607Z,0
2016-06-07T00:44:24.625Z,0
2016-06-07T00:45:24.628Z,0
2016-06-07T00:46:24.631Z,0
2016-06-07T00:47:24.743Z,0
2016-06-07T00:48:24.651Z,0
2016-06-07T00:49:24.654Z,0
2016-06-07T00:50:24.656Z,0
2016-06-07T00:51:25.206Z,0
2016-06-07T00:52:24.678Z,0
2016-06-07T00:53:24.696Z,0
2016-06-07T00:54:24.698Z,0
2016-06-07T00:55:24.717Z,0
2016-06-07T00:56:24.704Z,0
2016-06-07T00:57:24.723Z,0
2016-06-07T00:58:24.725Z,0
2016-06-07T00:59:24.728Z,0
2016-06-07T01:00:24.747Z,0
2016-06-07T01:01:24.749Z,0
2016-06-07T01:02:24.767Z,0
2016-06-07T01:03:24.614Z,0
2016-06-07T01:04:24.772Z,0
2016-06-07T01:05:24.775Z,0
2016-06-07T01:06:24.793Z,0
2016-06-07T01:07:24.796Z,0
2016-06-07T01:08:24.799Z,0
2016-06-07T01:09:24.818Z,0
2016-06-07T01:10:24.821Z,0
2016-06-07T01:11:24.823Z,0
2016-06-07T01:12:24.840Z,0
2016-06-07T01:13:24.687Z,0
2016-06-07T01:14:24.846Z,0
2016-06-07T01:15:24.849Z,0
2016-06-07T01:16:24.851Z,0
2016-06-07T01:17:24.870Z,0
2016-06-07T01:18:24.873Z,0
2016-06-07T01:19:24.890Z,0
2016-06-07T01:20:24.893Z,0
2016-06-07T01:21:25.943Z,0
2016-06-07T01:22:24.899Z,0
2016-06-07T01:23:24.901Z,0
2016-06-07T01:24:24.920Z,0
2016-06-07T01:25:24.922Z,0
2016-06-07T01:26:24.926Z,0
2016-06-07T01:27:24.787Z,0
2016-06-07T01:28:24.994Z,0
2016-06-07T01:29:25.011Z,0
2016-06-07T01:30:24.967Z,0
2016-06-07T01:31:24.986Z,0
2016-06-07T01:32:25.036Z,0
2016-06-07T01:33:25.038Z,0
2016-06-07T01:34:25.213Z,0
2016-06-07T01:35:24.996Z,0
2016-06-07T01:36:25.547Z,0
2016-06-07T01:37:25.018Z,0
2016-06-07T01:38:25.021Z,0
2016-06-07T01:39:25.038Z,0
2016-06-07T01:40:25.041Z,0
2016-06-07T01:41:25.044Z,0
2016-06-07T01:42:25.047Z,0
2016-06-07T01:43:25.065Z,0
2016-06-07T01:44:25.067Z,0
2016-06-07T01:45:25.085Z,0
2016-06-07T01:46:25.088Z,0
2016-06-07T01:47:24.934Z,0
2016-06-07T01:48:25.097Z,0
2016-06-07T01:49:25.131Z,0
2016-06-07T01:50:25.148Z,0
2016-06-07T01:51:25.182Z,0
2016-06-07T01:52:25.199Z,0
2016-06-07T01:53:25.215Z,0
2016-06-07T01:54:25.223Z,0
2016-06-07T01:55:25.246Z,0
2016-06-07T01:56:25.255Z,0
2016-06-07T01:57:25.262Z,0
2016-06-07T01:58:25.270Z,0
2016-06-07T01:59:25.290Z,0
2016-06-07T02:00:25.294Z,0
2016-06-07T02:01:25.315Z,0
2016-06-07T02:02:25.320Z,0
2016-06-07T02:03:25.339Z,0
2016-06-07T02:04:25.343Z,0
2016-06-07T02:05:25.347Z,0
2016-06-07T02:06:25.210Z,0
2016-06-07T02:07:25.353Z,0
2016-06-07T02:08:25.373Z,0
2016-06-07T02:09:25.220Z,0
2016-06-07T02:10:25.379Z,0
2016-06-07T02:11:25.396Z,0
2016-06-07T02:12:25.416Z,0
2016-06-07T02:13:25.419Z,0
2016-06-07T02:14:25.422Z,0
2016-06-07T02:15:25.408Z,0
2016-06-07T02:16:25.427Z,0
2016-06-07T02:17:25.429Z,0
2016-06-07T02:18:25.449Z,0
2016-06-07T02:19:25.451Z,0
2016-06-07T02:20:25.469Z,0
2016-06-07T02:21:26.753Z,0
2016-06-07T02:22:25.474Z,0
2016-06-07T02:23:25.493Z,0
2016-06-07T02:24:25.496Z,0
2016-06-07T02:25:25.514Z,0
2016-06-07T02:26:25.501Z,0
2016-06-07T02:27:25.520Z,0
2016-06-07T02:28:25.568Z,0
2016-06-07T02:29:25.525Z,0
2016-06-07T02:30:25.542Z,0
2016-06-07T02:31:25.545Z,0
2016-06-07T02:32:25.548Z,0
2016-06-07T02:33:25.598Z,0
2016-06-07T02:34:25.570Z,0
2016-06-07T02:35:25.572Z,0
2016-06-07T02:36:26.450Z,0
2016-06-07T02:37:25.436Z,0
2016-06-07T02:38:25.611Z,0
2016-06-07T02:39:25.614Z,0
2016-06-07T02:40:25.617Z,0
2016-06-07T02:41:25.619Z,0
2016-06-07T02:42:25.622Z,0
2016-06-07T02:43:25.484Z,0
2016-06-07T02:44:25.643Z,0
2016-06-07T02:45:25.646Z,0
2016-06-07T02:46:25.664Z,0
2016-06-07T02:47:25.666Z,0
2016-06-07T02:48:25.529Z,4
2016-06-07T02:49:25.703Z,4
2016-06-07T02:50:25.691Z,4
2016-06-07T02:51:26.397Z,0
2016-06-07T02:52:25.711Z,0
2016-06-07T02:53:25.715Z,4
2016-06-07T02:54:25.732Z,4
2016-06-07T02:55:25.735Z,0
2016-06-07T02:56:25.738Z,4
2016-06-07T02:57:25.740Z,4
2016-06-07T02:58:25.759Z,4
2016-06-07T02:59:25.621Z,4
2016-06-07T03:00:25.765Z,4
2016-06-07T03:01:25.782Z,8
2016-06-07T03:02:25.785Z,4
2016-06-07T03:03:25.787Z,8
2016-06-07T03:04:25.790Z,8
2016-06-07T03:05:25.793Z,8
2016-06-07T03:06:26.858Z,12
2016-06-07T03:07:25.814Z,12
2016-06-07T03:08:25.833Z,12
2016-06-07T03:09:25.836Z,12
2016-06-07T03:10:25.853Z,12
2016-06-07T03:11:25.841Z,16
2016-06-07T03:12:25.843Z,16
2016-06-07T03:13:25.861Z,16
2016-06-07T03:14:25.864Z,20
2016-06-07T03:15:25.882Z,16
2016-06-07T03:16:25.885Z,20
2016-06-07T03:17:25.888Z,20
2016-06-07T03:18:25.766Z,24
2016-06-07T03:19:25.894Z,24
2016-06-07T03:20:25.912Z,28
2016-06-07T03:21:26.415Z,32
2016-06-07T03:22:26.261Z,28
2016-06-07T03:23:25.935Z,32
2016-06-07T03:24:25.954Z,36
2016-06-07T03:25:25.801Z,40
2016-06-07T03:26:25.960Z,40
2016-06-07T03:27:25.962Z,44
2016-06-07T03:28:25.980Z,44
2016-06-07T03:29:25.982Z,48
2016-06-07T03:30:26.001Z,56
2016-06-07T03:31:26.160Z,56
2016-06-07T03:32:26.007Z,64
2016-06-07T03:33:26.009Z,64
2016-06-07T03:34:26.012Z,68
2016-06-07T03:35:26.030Z,76
2016-06-07T03:36:25.892Z,76
2016-06-07T03:37:26.051Z,80
2016-06-07T03:38:26.053Z,84
2016-06-07T03:39:25.916Z,88
2016-06-07T03:40:26.075Z,96
2016-06-07T03:41:26.062Z,96
2016-06-07T03:42:26.080Z,104
2016-06-07T03:43:26.083Z,112
2016-06-07T03:44:26.102Z,116
2016-06-07T03:45:26.104Z,120
2016-06-07T03:46:26.122Z,124
2016-06-07T03:47:26.125Z,128
2016-06-07T03:48:26.127Z,132
2016-06-07T03:49:26.130Z,136
2016-06-07T03:50:26.133Z,140
2016-06-07T03:51:26.683Z,144
2016-06-07T03:52:26.373Z,152
2016-06-07T03:53:26.172Z,156
2016-06-07T03:54:26.160Z,160
2016-06-07T03:55:26.177Z,164
2016-06-07T03:56:26.180Z,168
2016-06-07T03:57:26.182Z,172
2016-06-07T03:58:26.201Z,176
2016-06-07T03:59:26.204Z,180
2016-06-07T04:00:26.207Z,188
2016-06-07T04:01:26.226Z,192
2016-06-07T04:02:26.228Z,196
2016-06-07T04:03:26.246Z,200
2016-06-07T04:04:26.233Z,208
2016-06-07T04:05:26.251Z,220
2016-06-07T04:06:26.473Z,228
2016-06-07T04:07:26.882Z,236
2016-06-07T04:08:26.275Z,244
2016-06-07T04:09:26.278Z,256
2016-06-07T04:10:26.281Z,264
2016-06-07T04:11:26.283Z,276
2016-06-07T04:12:26.302Z,288
2016-06-07T04:13:26.305Z,300
2016-06-07T04:14:26.308Z,312
2016-06-07T04:15:26.325Z,328
2016-06-07T04:16:26.327Z,344
2016-06-07T04:17:26.331Z,368
2016-06-07T04:18:26.334Z,388
2016-06-07T04:19:26.352Z,408
2016-06-07T04:20:26.354Z,428
2016-06-07T04:21:26.966Z,440
2016-06-07T04:22:26.704Z,452
2016-06-07T04:23:26.378Z,464
2016-06-07T04:24:26.381Z,480
2016-06-07T04:25:26.383Z,492
2016-06-07T04:26:26.401Z,500
2016-06-07T04:27:26.405Z,532
2016-06-07T04:28:26.407Z,548
2016-06-07T04:29:26.410Z,572
2016-06-07T04:30:26.443Z,596
2016-06-07T04:31:26.494Z,632
2016-06-07T04:32:26.449Z,668
2016-06-07T04:33:26.451Z,704
2016-06-07T04:34:26.455Z,740
2016-06-07T04:35:26.488Z,772
2016-06-07T04:36:26.476Z,804
2016-06-07T04:37:26.384Z,828
2016-06-07T04:38:26.481Z,856
2016-06-07T04:39:26.483Z,888
2016-06-07T04:40:26.503Z,940
2016-06-07T04:41:26.520Z,988
2016-06-07T04:42:26.523Z,1024
2016-06-07T04:43:26.541Z,1068
2016-06-07T04:44:26.514Z,1112
2016-06-07T04:45:26.546Z,1160
2016-06-07T04:46:26.533Z,1208
2016-06-07T04:47:26.552Z,1260
2016-06-07T04:48:26.555Z,1296
2016-06-07T04:49:26.558Z,1312
2016-06-07T04:50:26.560Z,1304
2016-06-07T04:51:26.563Z,1396
2016-06-07T04:52:27.049Z,1452
2016-06-07T04:53:26.583Z,1492
2016-06-07T04:54:26.586Z,1544
2016-06-07T04:55:26.605Z,1584
2016-06-07T04:56:26.607Z,1620
2016-06-07T04:57:26.610Z,1648
2016-06-07T04:58:26.613Z,1684
2016-06-07T04:59:26.632Z,1716
2016-06-07T05:00:26.634Z,1628
2016-06-07T05:01:26.637Z,1548
2016-06-07T05:02:26.654Z,1612
2016-06-07T05:03:26.657Z,1772
2016-06-07T05:04:26.660Z,1876
2016-06-07T05:05:26.523Z,1912
2016-06-07T05:06:26.682Z,1940
2016-06-07T05:07:26.715Z,1976
2016-06-07T05:08:26.718Z,2008
2016-06-07T05:09:26.548Z,2052
2016-06-07T05:10:26.708Z,2168
2016-06-07T05:11:26.726Z,2984
2016-06-07T05:12:26.728Z,4076
2016-06-07T05:13:26.747Z,3884
2016-06-07T05:14:26.750Z,2540
2016-06-07T05:15:26.753Z,2424
2016-06-07T05:16:26.770Z,2300
2016-06-07T05:17:26.772Z,2536
2016-06-07T05:18:26.792Z,2884
2016-06-07T05:19:26.794Z,3192
2016-06-07T05:20:26.797Z,3508
2016-06-07T05:21:26.658Z,4464
2016-06-07T05:22:26.678Z,4708
2016-06-07T05:23:26.821Z,4664
2016-06-07T05:24:26.839Z,4500
2016-06-07T05:25:26.685Z,4512
2016-06-07T05:26:26.860Z,4988
2016-06-07T05:27:26.863Z,5304
2016-06-07T05:28:26.866Z,5844
2016-06-07T05:29:26.712Z,6272
2016-06-07T05:30:26.886Z,6516
2016-06-07T05:31:26.951Z,6704
2016-06-07T05:32:26.892Z,6948
2016-06-07T05:33:26.910Z,7132
2016-06-07T05:34:26.757Z,7348
2016-06-07T05:35:26.994Z,7420
2016-06-07T05:36:26.949Z,7528
2016-06-07T05:37:28.405Z,7276
2016-06-07T05:38:26.955Z,6784
2016-06-07T05:39:26.973Z,5420
2016-06-07T05:40:26.992Z,5104
2016-06-07T05:41:27.322Z,3680
2016-06-07T05:42:26.903Z,3288
2016-06-07T05:43:27.000Z,3768
2016-06-07T05:44:27.050Z,3732
2016-06-07T05:45:27.067Z,3888
2016-06-07T05:46:26.883Z,4264
2016-06-07T05:47:26.885Z,3872
2016-06-07T05:48:27.044Z,5428
2016-06-07T05:49:27.063Z,5852
2016-06-07T05:50:27.065Z,5476
2016-06-07T05:51:27.677Z,5564
2016-06-07T05:52:27.242Z,4628
2016-06-07T05:53:27.105Z,3964
2016-06-07T05:54:27.108Z,3564
2016-06-07T05:55:27.125Z,3416
2016-06-07T05:56:27.128Z,3396
2016-06-07T05:57:27.131Z,3384
2016-06-07T05:58:27.134Z,3424
2016-06-07T05:59:27.152Z,3388
2016-06-07T06:00:27.170Z,3324
2016-06-07T06:01:27.189Z,3272
2016-06-07T06:02:27.035Z,3180
2016-06-07T06:03:27.210Z,3236
2016-06-07T06:04:27.196Z,3292
2016-06-07T06:05:27.199Z,3492
2016-06-07T06:06:27.218Z,3708
2016-06-07T06:07:27.205Z,3952
2016-06-07T06:08:27.645Z,4316
2016-06-07T06:09:27.242Z,4388
2016-06-07T06:10:27.245Z,4308
2016-06-07T06:11:27.262Z,4388
2016-06-07T06:12:27.265Z,4296
2016-06-07T06:13:27.268Z,4072
2016-06-07T06:14:27.286Z,4180
2016-06-07T06:15:27.289Z,4448
2016-06-07T06:16:27.306Z,11532
2016-06-07T06:17:27.310Z,5600
2016-06-07T06:18:27.312Z,11360
2016-06-07T06:19:27.331Z,4856
2016-06-07T06:20:27.333Z,5016
2016-06-07T06:21:27.352Z,6708
2016-06-07T06:22:27.386Z,11980
2016-06-07T06:23:27.498Z,12544
2016-06-07T06:24:27.375Z,16128
2016-06-07T06:25:27.378Z,14640
2016-06-07T06:26:27.381Z,15328
2016-06-07T06:27:27.399Z,16064
2016-06-07T06:28:27.402Z,17088
2016-06-07T06:29:27.404Z,16768
2016-06-07T06:30:27.486Z,16160
2016-06-07T06:31:27.488Z,17344
2016-06-07T06:32:27.443Z,17344
2016-06-07T06:33:27.447Z,18720
2016-06-07T06:34:27.309Z,19968
2016-06-07T06:35:27.467Z,21600
2016-06-07T06:36:27.517Z,20928
2016-06-07T06:37:27.520Z,21184
2016-06-07T06:38:27.491Z,22656
2016-06-07T06:39:27.509Z,24352
2016-06-07T06:40:27.512Z,24896
2016-06-07T06:41:27.358Z,24064
2016-06-07T06:42:27.534Z,24096
2016-06-07T06:43:27.537Z,22496
2016-06-07T06:44:27.554Z,22592
2016-06-07T06:45:27.556Z,22464
2016-06-07T06:46:27.420Z,22240
2016-06-07T06:47:27.578Z,23744
2016-06-07T06:48:27.580Z,25888
2016-06-07T06:49:27.600Z,25792
2016-06-07T06:50:27.602Z,24384
2016-06-07T06:51:27.636Z,22720
2016-06-07T06:52:27.357Z,21856
2016-06-07T06:53:27.486Z,20416
2016-06-07T06:54:27.644Z,21024
2016-06-07T06:55:27.646Z,22944
2016-06-07T06:56:27.681Z,22560
2016-06-07T06:57:27.683Z,23712
2016-06-07T06:58:27.702Z,24032
2016-06-07T06:59:27.704Z,24576
2016-06-07T07:00:27.565Z,23424
2016-06-07T07:01:27.725Z,22240
2016-06-07T07:02:27.728Z,23360
2016-06-07T07:03:27.746Z,25216
2016-06-07T07:04:27.749Z,25216
2016-06-07T07:05:27.768Z,27136
2016-06-07T07:06:27.785Z,27904
2016-06-07T07:07:27.679Z,27968
2016-06-07T07:08:27.790Z,27712
2016-06-07T07:09:27.824Z,26848
2016-06-07T07:10:27.812Z,27552
2016-06-07T07:11:27.876Z,27808
2016-06-07T07:12:27.848Z,27392
2016-06-07T07:13:27.992Z,27424
2016-06-07T07:14:27.698Z,28064
2016-06-07T07:15:27.887Z,30144
2016-06-07T07:16:27.922Z,29760
2016-06-07T07:17:27.909Z,29088
2016-06-07T07:18:27.927Z,30144
2016-06-07T07:19:27.930Z,30784
2016-06-07T07:20:27.932Z,29280
2016-06-07T07:21:27.795Z,28544
2016-06-07T07:22:29.938Z,27616
2016-06-07T07:23:27.971Z,25408
2016-06-07T07:24:27.975Z,19328
2016-06-07T07:25:27.992Z,18080
2016-06-07T07:26:28.011Z,31456
2016-06-07T07:27:28.013Z,30112
2016-06-07T07:28:28.032Z,20768
2016-06-07T07:29:28.035Z,15552
2016-06-07T07:30:28.069Z,13556
2016-06-07T07:31:28.055Z,13044
2016-06-07T14:30:31.720Z,116
2016-06-07T14:31:31.739Z,116
2016-06-07T14:32:31.741Z,116
2016-06-07T14:33:31.744Z,116
2016-06-07T14:34:31.747Z,120
2016-06-07T14:35:31.764Z,120
2016-06-07T14:36:31.767Z,120
2016-06-07T14:37:31.770Z,120
2016-06-07T14:38:31.772Z,124
2016-06-07T14:39:31.807Z,124
2016-06-07T14:40:31.872Z,128
2016-06-07T14:41:31.813Z,128
2016-06-07T14:42:31.799Z,128
2016-06-07T14:43:31.833Z,132
2016-06-07T14:44:31.821Z,136
2016-06-07T14:45:31.823Z,140
2016-06-07T14:46:31.841Z,140
2016-06-07T14:47:31.735Z,144
2016-06-07T14:48:31.846Z,148
2016-06-07T14:49:31.849Z,152
2016-06-07T14:50:31.868Z,156
2016-06-07T14:51:31.854Z,160
2016-06-07T14:52:31.857Z,164
2016-06-07T14:53:31.876Z,168
2016-06-07T14:54:32.348Z,172
2016-06-07T14:55:31.897Z,180
2016-06-07T14:56:31.884Z,180
2016-06-07T14:57:31.887Z,192
2016-06-07T14:58:31.905Z,196
2016-06-07T14:59:31.923Z,204
2016-06-07T15:00:31.925Z,132
2016-06-07T15:01:31.976Z,144
2016-06-07T15:02:32.041Z,152
2016-06-07T15:03:31.934Z,164
2016-06-07T15:04:31.781Z,176
2016-06-07T15:05:31.955Z,184
2016-06-07T15:06:31.958Z,192
2016-06-07T15:07:31.961Z,204
2016-06-07T15:08:31.963Z,216
2016-06-07T15:09:32.731Z,232
2016-06-07T15:10:31.984Z,252
2016-06-07T15:11:31.987Z,272
2016-06-07T15:12:31.989Z,300
2016-06-07T15:13:32.007Z,328
2016-06-07T15:14:32.011Z,356
2016-06-07T15:15:32.013Z,392
2016-06-07T15:16:32.015Z,420
2016-06-07T15:17:32.018Z,456
2016-06-07T15:18:32.021Z,488
2016-06-07T15:19:32.040Z,512
2016-06-07T15:20:32.042Z,524
2016-06-07T15:21:32.045Z,532
2016-06-07T15:22:32.048Z,536
2016-06-07T15:23:32.066Z,552
2016-06-07T15:24:32.085Z,568
2016-06-07T15:25:32.070Z,588
2016-06-07T15:26:32.074Z,608
2016-06-07T15:27:32.076Z,624
2016-06-07T15:28:32.095Z,636
2016-06-07T15:29:32.113Z,644
2016-06-07T15:30:32.100Z,652
2016-06-07T15:31:32.103Z,660
2016-06-07T15:32:31.950Z,660
2016-06-07T15:33:32.124Z,656
2016-06-07T15:34:32.111Z,640
2016-06-07T15:35:32.114Z,628
2016-06-07T15:36:32.148Z,620
2016-06-07T15:37:32.135Z,612
2016-06-07T15:38:32.138Z,608
2016-06-07T15:39:33.047Z,604
2016-06-07T15:40:32.159Z,604
2016-06-07T15:41:32.161Z,608
2016-06-07T15:42:32.164Z,608
2016-06-07T15:43:32.166Z,608
2016-06-07T15:44:32.169Z,596
2016-06-07T15:45:32.172Z,584
2016-06-07T15:46:32.174Z,576
2016-06-07T15:47:32.193Z,568
2016-06-07T15:48:32.195Z,548
2016-06-07T15:49:32.199Z,512
2016-06-07T15:50:32.217Z,476
2016-06-07T15:51:32.204Z,436
2016-06-07T15:52:32.207Z,416
2016-06-07T15:53:32.224Z,400
2016-06-07T15:54:32.102Z,388
2016-06-07T15:55:32.245Z,384
2016-06-07T15:56:32.265Z,376
2016-06-07T15:57:32.267Z,368
2016-06-07T15:58:32.098Z,360
2016-06-07T15:59:32.256Z,352
2016-06-07T16:00:32.306Z,340
2016-06-07T16:01:32.325Z,328
2016-06-07T16:02:32.281Z,312
2016-06-07T16:03:32.330Z,300
2016-06-07T16:04:32.286Z,288
2016-06-07T16:05:32.289Z,272
2016-06-07T16:06:32.291Z,256
2016-06-07T16:07:32.137Z,240
2016-06-07T16:08:32.297Z,224
2016-06-07T16:09:33.049Z,212
2016-06-07T16:10:32.333Z,204
2016-06-07T16:11:32.163Z,196
2016-06-07T16:12:32.322Z,192
2016-06-07T16:13:32.325Z,180
2016-06-07T16:14:32.328Z,172
2016-06-07T16:15:32.330Z,164
2016-06-07T16:16:32.349Z,156
2016-06-07T16:17:32.352Z,148
2016-06-07T16:18:32.199Z,140
2016-06-07T16:19:32.357Z,140
2016-06-07T16:20:32.360Z,132
2016-06-07T16:21:32.363Z,128
2016-06-07T16:22:32.381Z,124
2016-06-07T16:23:32.384Z,124
2016-06-07T16:24:32.807Z,120
2016-06-07T16:25:32.092Z,120
2016-06-07T16:26:32.392Z,124
2016-06-07T16:27:32.394Z,124
2016-06-07T16:28:32.412Z,124
2016-06-07T16:29:32.416Z,124
2016-06-07T16:30:32.418Z,128
2016-06-07T16:31:32.420Z,124
2016-06-07T16:32:32.423Z,124
2016-06-07T16:33:32.442Z,128
2016-06-07T16:34:32.444Z,128
2016-06-07T16:35:32.448Z,128
2016-06-07T16:36:32.309Z,136
2016-06-07T16:37:32.453Z,136
2016-06-07T16:38:32.300Z,136
2016-06-07T16:39:33.130Z,140
2016-06-07T16:40:32.445Z,140
2016-06-07T16:41:32.322Z,136
2016-06-07T16:42:32.481Z,140
